sensor_id;sensor_type;location;lat;lon;timestamp;pressure;altitude;pressure_sealevel;temperature;humidity
14269;BME280;7218;51.480;7.006;2022-09-21T00:01:29;101782.31;;;12.21;100.00
14269;BME280;7218;51.480;7.006;2022-09-21T00:03:58;101788.44;;;12.11;100.00
14269;BME280;7218;51.480;7.006;2022-09-21T00:06:26;101781.50;;;12.02;100.00
14269;BME280;7218;51.480;7.006;2022-09-21T00:08:54;101782.34;;;12.01;100.00
14269;BME280;7218;51.480;7.006;2022-09-21T00:11:24;101772.78;;;11.97;100.00
14269;BME280;7218;51.480;7.006;2022-09-21T00:13:51;101775.41;;;11.97;100.00
14269;BME280;7218;51.480;7.006;2022-09-21T00:16:19;101773.69;;;11.84;100.00
14269;BME280;7218;51.480;7.006;2022-09-21T00:18:46;101770.19;;;11.85;100.00
14269;BME280;7218;51.480;7.006;2022-09-21T00:21:14;101773.66;;;11.88;100.00
14269;BME280;7218;51.480;7.006;2022-09-21T00:23:40;101770.19;;;11.77;100.00
14269;BME280;7218;51.480;7.006;2022-09-21T00:26:09;101776.28;;;11.79;100.00
14269;BME280;7218;51.480;7.006;2022-09-21T00:28:37;101775.41;;;11.79;100.00
14269;BME280;7218;51.480;7.006;2022-09-21T00:31:06;101778.88;;;11.91;100.00
14269;BME280;7218;51.480;7.006;2022-09-21T00:33:34;101778.03;;;11.79;100.00
14269;BME280;7218;51.480;7.006;2022-09-21T00:36:01;101785.88;;;11.80;100.00
14269;BME280;7218;51.480;7.006;2022-09-21T00:38:29;101785.84;;;11.92;100.00
14269;BME280;7218;51.480;7.006;2022-09-21T00:40:55;101783.25;;;11.86;100.00
14269;BME280;7218;51.480;7.006;2022-09-21T00:43:22;101788.47;;;11.73;100.00
14269;BME280;7218;51.480;7.006;2022-09-21T00:45:52;101787.59;;;11.83;100.00
14269;BME280;7218;51.480;7.006;2022-09-21T00:48:21;101793.72;;;11.79;100.00
14269;BME280;7218;51.480;7.006;2022-09-21T00:50:49;101794.59;;;11.79;100.00
14269;BME280;7218;51.480;7.006;2022-09-21T00:53:18;101791.09;;;11.85;100.00
14269;BME280;7218;51.480;7.006;2022-09-21T00:55:47;101789.38;;;11.90;100.00
14269;BME280;7218;51.480;7.006;2022-09-21T00:58:18;101802.44;;;11.84;100.00
14269;BME280;7218;51.480;7.006;2022-09-21T01:00:47;101790.19;;;11.69;100.00
14269;BME280;7218;51.480;7.006;2022-09-21T01:03:15;101791.97;;;11.76;100.00
14269;BME280;7218;51.480;7.006;2022-09-21T01:05:41;101791.94;;;11.70;100.00
14269;BME280;7218;51.480;7.006;2022-09-21T01:08:09;101796.31;;;11.77;100.00
14269;BME280;7218;51.480;7.006;2022-09-21T01:10:45;101791.94;;;11.81;100.00
14269;BME280;7218;51.480;7.006;2022-09-21T01:13:33;101797.19;;;11.82;100.00
14269;BME280;7218;51.480;7.006;2022-09-21T01:16:06;101793.69;;;11.60;100.00
14269;BME280;7218;51.480;7.006;2022-09-21T01:18:43;101801.53;;;11.65;100.00
14269;BME280;7218;51.480;7.006;2022-09-21T01:21:18;101793.69;;;11.60;100.00
14269;BME280;7218;51.480;7.006;2022-09-21T01:24:04;101798.03;;;11.58;100.00
14269;BME280;7218;51.480;7.006;2022-09-21T01:26:53;101798.00;;;11.52;100.00
14269;BME280;7218;51.480;7.006;2022-09-21T01:29:27;101794.53;;;11.62;100.00
14269;BME280;7218;51.480;7.006;2022-09-21T01:32:03;101799.78;;;11.62;99.99
14269;BME280;7218;51.480;7.006;2022-09-21T01:34:36;101800.66;;;11.55;100.00
14269;BME280;7218;51.480;7.006;2022-09-21T01:37:07;101802.38;;;11.58;100.00
14269;BME280;7218;51.480;7.006;2022-09-21T01:39:36;101799.78;;;11.50;100.00
14269;BME280;7218;51.480;7.006;2022-09-21T01:42:06;101803.25;;;11.45;100.00
14269;BME280;7218;51.480;7.006;2022-09-21T01:44:35;101803.25;;;11.40;100.00
14269;BME280;7218;51.480;7.006;2022-09-21T01:47:06;101800.63;;;11.45;100.00
14269;BME280;7218;51.480;7.006;2022-09-21T01:49:36;101800.59;;;11.36;100.00
14269;BME280;7218;51.480;7.006;2022-09-21T01:52:15;101798.03;;;11.40;100.00
14269;BME280;7218;51.480;7.006;2022-09-21T01:54:48;101792.78;;;11.40;100.00
14269;BME280;7218;51.480;7.006;2022-09-21T01:57:21;101801.50;;;11.44;100.00
14269;BME280;7218;51.480;7.006;2022-09-21T01:59:53;101802.34;;;11.43;100.00
14269;BME280;7218;51.480;7.006;2022-09-21T02:02:25;101796.28;;;11.45;100.00
14269;BME280;7218;51.480;7.006;2022-09-21T02:04:53;101791.91;;;11.43;100.00
14269;BME280;7218;51.480;7.006;2022-09-21T02:07:19;101799.75;;;11.49;100.00
14269;BME280;7218;51.480;7.006;2022-09-21T02:09:46;101791.06;;;11.50;100.00
14269;BME280;7218;51.480;7.006;2022-09-21T02:12:13;101790.16;;;11.36;100.00
14269;BME280;7218;51.480;7.006;2022-09-21T02:14:40;101791.03;;;11.33;100.00
14269;BME280;7218;51.480;7.006;2022-09-21T02:17:20;101791.88;;;11.28;100.00
14269;BME280;7218;51.480;7.006;2022-09-21T02:19:54;101793.63;;;11.26;100.00
14269;BME280;7218;51.480;7.006;2022-09-21T02:22:30;101790.16;;;11.20;100.00
14269;BME280;7218;51.480;7.006;2022-09-21T02:25:06;101784.91;;;11.14;100.00
14269;BME280;7218;51.480;7.006;2022-09-21T02:27:38;101791.88;;;11.15;100.00
14269;BME280;7218;51.480;7.006;2022-09-21T02:30:12;101790.09;;;11.11;100.00
14269;BME280;7218;51.480;7.006;2022-09-21T02:32:45;101792.72;;;11.08;100.00
14269;BME280;7218;51.480;7.006;2022-09-21T02:35:21;101796.22;;;11.18;100.00
14269;BME280;7218;51.480;7.006;2022-09-21T02:38:02;101797.06;;;11.09;100.00
14269;BME280;7218;51.480;7.006;2022-09-21T02:40:34;101798.78;;;11.07;100.00
14269;BME280;7218;51.480;7.006;2022-09-21T02:43:08;101797.91;;;11.02;100.00
14269;BME280;7218;51.480;7.006;2022-09-21T02:48:12;101790.97;;;11.04;100.00
14269;BME280;7218;51.480;7.006;2022-09-21T02:50:44;101783.97;;;10.93;100.00
14269;BME280;7218;51.480;7.006;2022-09-21T02:53:12;101786.56;;;10.91;100.00
14269;BME280;7218;51.480;7.006;2022-09-21T02:55:41;101790.06;;;10.90;100.00
14269;BME280;7218;51.480;7.006;2022-09-21T02:58:12;101787.47;;;10.99;100.00
14269;BME280;7218;51.480;7.006;2022-09-21T03:00:40;101790.06;;;10.98;100.00
14269;BME280;7218;51.480;7.006;2022-09-21T03:03:15;101787.50;;;11.05;100.00
14269;BME280;7218;51.480;7.006;2022-09-21T03:05:43;101784.84;;;11.02;100.00
14269;BME280;7218;51.480;7.006;2022-09-21T03:08:10;101791.78;;;10.91;100.00
14269;BME280;7218;51.480;7.006;2022-09-21T03:10:36;101792.63;;;10.83;100.00
14269;BME280;7218;51.480;7.006;2022-09-21T03:13:04;101793.50;;;10.86;100.00
14269;BME280;7218;51.480;7.006;2022-09-21T03:15:30;101791.78;;;10.88;100.00
14269;BME280;7218;51.480;7.006;2022-09-21T03:17:57;101794.38;;;10.88;100.00
14269;BME280;7218;51.480;7.006;2022-09-21T03:20:24;101797.88;;;10.92;100.00
14269;BME280;7218;51.480;7.006;2022-09-21T03:22:51;101802.16;;;10.77;100.00
14269;BME280;7218;51.480;7.006;2022-09-21T03:25:17;101798.66;;;10.71;100.00
14269;BME280;7218;51.480;7.006;2022-09-21T03:27:44;101802.06;;;10.55;100.00
14269;BME280;7218;51.480;7.006;2022-09-21T03:30:11;101803.84;;;10.56;100.00
14269;BME280;7218;51.480;7.006;2022-09-21T03:32:38;101801.25;;;10.65;100.00
14269;BME280;7218;51.480;7.006;2022-09-21T03:35:05;101803.00;;;10.67;100.00
14269;BME280;7218;51.480;7.006;2022-09-21T03:37:33;101804.75;;;10.73;100.00
14269;BME280;7218;51.480;7.006;2022-09-21T03:40:00;101801.28;;;10.69;100.00
14269;BME280;7218;51.480;7.006;2022-09-21T03:42:27;101807.34;;;10.67;100.00
14269;BME280;7218;51.480;7.006;2022-09-21T03:44:53;101805.53;;;10.57;100.00
14269;BME280;7218;51.480;7.006;2022-09-21T03:47:20;101804.59;;;10.41;100.00
14269;BME280;7218;51.480;7.006;2022-09-21T03:49:46;101808.94;;;10.38;100.00
14269;BME280;7218;51.480;7.006;2022-09-21T03:52:13;101815.00;;;10.33;100.00
14269;BME280;7218;51.480;7.006;2022-09-21T03:54:40;101817.66;;;10.43;100.00
14269;BME280;7218;51.480;7.006;2022-09-21T03:57:07;101807.16;;;10.36;100.00
14269;BME280;7218;51.480;7.006;2022-09-21T03:59:33;101811.59;;;10.51;100.00
14269;BME280;7218;51.480;7.006;2022-09-21T04:02:00;101815.03;;;10.41;100.00
14269;BME280;7218;51.480;7.006;2022-09-21T04:04:26;101812.38;;;10.32;100.00
14269;BME280;7218;51.480;7.006;2022-09-21T04:06:53;101811.50;;;10.33;100.00
14269;BME280;7218;51.480;7.006;2022-09-21T04:09:19;101813.22;;;10.29;100.00
14269;BME280;7218;51.480;7.006;2022-09-21T04:11:47;101812.38;;;10.32;100.00
14269;BME280;7218;51.480;7.006;2022-09-21T04:14:13;101812.34;;;10.27;100.00
14269;BME280;7218;51.480;7.006;2022-09-21T04:16:40;101817.50;;;10.18;100.00
14269;BME280;7218;51.480;7.006;2022-09-21T04:19:06;101805.34;;;10.20;100.00
14269;BME280;7218;51.480;7.006;2022-09-21T04:21:33;101811.47;;;10.24;100.00
14269;BME280;7218;51.480;7.006;2022-09-21T04:24:00;101812.34;;;10.24;100.00
14269;BME280;7218;51.480;7.006;2022-09-21T04:26:28;101810.53;;;10.17;100.00
14269;BME280;7218;51.480;7.006;2022-09-21T04:28:57;101809.69;;;10.18;100.00
14269;BME280;7218;51.480;7.006;2022-09-21T04:31:27;101812.25;;;10.15;100.00
14269;BME280;7218;51.480;7.006;2022-09-21T04:33:56;101820.00;;;10.08;100.00
14269;BME280;7218;51.480;7.006;2022-09-21T04:36:24;101815.75;;;10.17;100.00
14269;BME280;7218;51.480;7.006;2022-09-21T04:38:50;101813.94;;;10.10;100.00
14269;BME280;7218;51.480;7.006;2022-09-21T04:41:17;101815.66;;;10.11;100.00
14269;BME280;7218;51.480;7.006;2022-09-21T04:43:45;101813.16;;;10.16;100.00
14269;BME280;7218;51.480;7.006;2022-09-21T04:46:14;101821.78;;;10.15;100.00
14269;BME280;7218;51.480;7.006;2022-09-21T04:48:41;101817.50;;;10.18;100.00
14269;BME280;7218;51.480;7.006;2022-09-21T04:51:09;101820.88;;;10.08;100.00
14269;BME280;7218;51.480;7.006;2022-09-21T04:53:37;101831.28;;;10.05;100.00
14269;BME280;7218;51.480;7.006;2022-09-21T04:56:05;101829.53;;;10.07;100.00
14269;BME280;7218;51.480;7.006;2022-09-21T04:58:32;101820.13;;;10.23;100.00
14269;BME280;7218;51.480;7.006;2022-09-21T05:00:59;101821.78;;;10.15;100.00
14269;BME280;7218;51.480;7.006;2022-09-21T05:03:27;101822.75;;;10.27;100.00
14269;BME280;7218;51.480;7.006;2022-09-21T05:05:55;101825.31;;;10.21;100.00
14269;BME280;7218;51.480;7.006;2022-09-21T05:08:23;101824.47;;;10.19;100.00
14269;BME280;7218;51.480;7.006;2022-09-21T05:11:04;101830.56;;;10.24;100.00
14269;BME280;7218;51.480;7.006;2022-09-21T05:13:31;101831.41;;;10.19;100.00
14269;BME280;7218;51.480;7.006;2022-09-21T05:15:57;101830.59;;;10.26;100.00
14269;BME280;7218;51.480;7.006;2022-09-21T05:18:24;101828.78;;;10.17;100.00
14269;BME280;7218;51.480;7.006;2022-09-21T05:20:54;101838.34;;;10.18;100.00
14269;BME280;7218;51.480;7.006;2022-09-21T05:23:20;101836.50;;;10.08;100.00
14269;BME280;7218;51.480;7.006;2022-09-21T05:25:46;101837.34;;;10.01;100.00
14269;BME280;7218;51.480;7.006;2022-09-21T05:28:14;101845.16;;;10.01;100.00
14269;BME280;7218;51.480;7.006;2022-09-21T05:30:41;101844.22;;;9.98;100.00
14269;BME280;7218;51.480;7.006;2022-09-21T05:33:10;101843.47;;;10.09;100.00
14269;BME280;7218;51.480;7.006;2022-09-21T05:35:44;101852.19;;;10.14;100.00
14269;BME280;7218;51.480;7.006;2022-09-21T05:38:16;101850.47;;;10.16;100.00
14269;BME280;7218;51.480;7.006;2022-09-21T05:40:44;101855.72;;;10.18;100.00
14269;BME280;7218;51.480;7.006;2022-09-21T05:43:12;101854.88;;;10.20;100.00
14269;BME280;7218;51.480;7.006;2022-09-21T05:45:43;101852.31;;;10.28;100.00
14269;BME280;7218;51.480;7.006;2022-09-21T05:48:14;101856.63;;;10.20;100.00
14269;BME280;7218;51.480;7.006;2022-09-21T05:50:52;101851.47;;;10.26;100.00
14269;BME280;7218;51.480;7.006;2022-09-21T05:53:42;101865.44;;;10.39;100.00
14269;BME280;7218;51.480;7.006;2022-09-21T05:56:16;101861.97;;;10.43;100.00
14269;BME280;7218;51.480;7.006;2022-09-21T05:58:51;101865.41;;;10.37;100.00
14269;BME280;7218;51.480;7.006;2022-09-21T06:01:34;101868.09;;;10.45;100.00
14269;BME280;7218;51.480;7.006;2022-09-21T06:04:03;101862.78;;;10.31;100.00
14269;BME280;7218;51.480;7.006;2022-09-21T06:06:30;101874.97;;;10.35;100.00
14269;BME280;7218;51.480;7.006;2022-09-21T06:08:57;101868.06;;;10.42;100.00
14269;BME280;7218;51.480;7.006;2022-09-21T06:11:24;101869.84;;;10.52;100.00
14269;BME280;7218;51.480;7.006;2022-09-21T06:13:50;101875.09;;;10.56;100.00
14269;BME280;7218;51.480;7.006;2022-09-21T06:16:17;101875.16;;;10.67;100.00
14269;BME280;7218;51.480;7.006;2022-09-21T06:18:43;101872.56;;;10.68;100.00
14269;BME280;7218;51.480;7.006;2022-09-21T06:21:10;101878.69;;;10.70;100.00
14269;BME280;7218;51.480;7.006;2022-09-21T06:23:36;101880.47;;;10.82;100.00
14269;BME280;7218;51.480;7.006;2022-09-21T06:26:04;101873.56;;;10.86;100.00
14269;BME280;7218;51.480;7.006;2022-09-21T06:28:31;101876.09;;;10.81;100.00
14269;BME280;7218;51.480;7.006;2022-09-21T06:30:58;101877.94;;;10.96;100.00
14269;BME280;7218;51.480;7.006;2022-09-21T06:33:24;101872.72;;;10.99;100.00
14269;BME280;7218;51.480;7.006;2022-09-21T06:35:52;101877.97;;;11.06;100.00
14269;BME280;7218;51.480;7.006;2022-09-21T06:38:18;101882.34;;;11.07;100.00
14269;BME280;7218;51.480;7.006;2022-09-21T06:40:45;101873.63;;;11.11;100.00
14269;BME280;7218;51.480;7.006;2022-09-21T06:43:13;101884.09;;;11.08;100.00
14269;BME280;7218;51.480;7.006;2022-09-21T06:45:39;101883.25;;;11.14;100.00
14269;BME280;7218;51.480;7.006;2022-09-21T06:48:06;101883.25;;;11.18;100.00
14269;BME280;7218;51.480;7.006;2022-09-21T06:50:33;101881.53;;;11.22;100.00
14269;BME280;7218;51.480;7.006;2022-09-21T06:53:00;101877.22;;;11.38;100.00
14269;BME280;7218;51.480;7.006;2022-09-21T06:55:27;101882.47;;;11.39;100.00
14269;BME280;7218;51.480;7.006;2022-09-21T06:57:58;101892.06;;;11.51;100.00
14269;BME280;7218;51.480;7.006;2022-09-21T07:00:26;101885.97;;;11.56;100.00
14269;BME280;7218;51.480;7.006;2022-09-21T07:02:53;101889.50;;;11.69;100.00
14269;BME280;7218;51.480;7.006;2022-09-21T07:05:19;101885.19;;;11.79;100.00
14269;BME280;7218;51.480;7.006;2022-09-21T07:07:46;101885.22;;;12.09;100.00
14269;BME280;7218;51.480;7.006;2022-09-21T07:10:12;101892.19;;;12.13;100.00
14269;BME280;7218;51.480;7.006;2022-09-21T07:12:39;101887.81;;;12.23;100.00
14269;BME280;7218;51.480;7.006;2022-09-21T07:15:06;101893.03;;;12.38;100.00
14269;BME280;7218;51.480;7.006;2022-09-21T07:17:37;101880.81;;;12.54;100.00
14269;BME280;7218;51.480;7.006;2022-09-21T07:20:06;101884.28;;;12.69;100.00
14269;BME280;7218;51.480;7.006;2022-09-21T07:22:33;101878.13;;;12.78;99.93
14269;BME280;7218;51.480;7.006;2022-09-21T07:25:00;101878.94;;;12.90;99.34
14269;BME280;7218;51.480;7.006;2022-09-21T07:27:28;101884.13;;;13.07;98.89
14269;BME280;7218;51.480;7.006;2022-09-21T07:29:55;101880.66;;;13.14;98.55
14269;BME280;7218;51.480;7.006;2022-09-21T07:32:21;101880.56;;;13.32;98.42
14269;BME280;7218;51.480;7.006;2022-09-21T07:34:50;101877.91;;;13.42;98.03
14269;BME280;7218;51.480;7.006;2022-09-21T07:37:18;101880.44;;;13.58;97.05
14269;BME280;7218;51.480;7.006;2022-09-21T07:39:45;101875.13;;;13.67;96.44
14269;BME280;7218;51.480;7.006;2022-09-21T07:42:11;101878.50;;;13.80;95.98
14269;BME280;7218;51.480;7.006;2022-09-21T07:44:38;101870.59;;;13.88;95.38
14269;BME280;7218;51.480;7.006;2022-09-21T07:47:06;101878.38;;;14.03;95.42
14269;BME280;7218;51.480;7.006;2022-09-21T07:49:34;101876.50;;;14.17;94.68
14269;BME280;7218;51.480;7.006;2022-09-21T07:52:02;101864.09;;;14.37;94.31
14269;BME280;7218;51.480;7.006;2022-09-21T07:54:29;101866.63;;;14.48;93.93
14269;BME280;7218;51.480;7.006;2022-09-21T07:56:57;101870.91;;;14.55;93.69
14269;BME280;7218;51.480;7.006;2022-09-21T07:59:42;101875.97;;;14.73;93.19
14269;BME280;7218;51.480;7.006;2022-09-21T08:02:09;101875.75;;;14.91;92.37
14269;BME280;7218;51.480;7.006;2022-09-21T08:04:36;101870.44;;;14.97;92.11
14269;BME280;7218;51.480;7.006;2022-09-21T08:07:04;101866.75;;;15.14;91.31
14269;BME280;7218;51.480;7.006;2022-09-21T08:09:30;101862.38;;;15.09;89.50
14269;BME280;7218;51.480;7.006;2022-09-21T08:11:56;101871.00;;;15.24;88.80
14269;BME280;7218;51.480;7.006;2022-09-21T08:14:25;101865.53;;;15.39;87.81
14269;BME280;7218;51.480;7.006;2022-09-21T08:16:53;101868.97;;;15.41;85.95
14269;BME280;7218;51.480;7.006;2022-09-21T08:19:19;101871.38;;;15.61;84.52
14269;BME280;7218;51.480;7.006;2022-09-21T08:21:50;101883.47;;;15.72;83.90
14269;BME280;7218;51.480;7.006;2022-09-21T08:24:18;101879.69;;;15.90;82.14
14269;BME280;7218;51.480;7.006;2022-09-21T08:26:45;101879.44;;;16.05;81.28
14269;BME280;7218;51.480;7.006;2022-09-21T08:29:11;101883.63;;;16.18;79.92
14269;BME280;7218;51.480;7.006;2022-09-21T08:31:38;101877.25;;;16.31;78.54
14269;BME280;7218;51.480;7.006;2022-09-21T08:34:05;101884.59;;;16.63;77.62
14269;BME280;7218;51.480;7.006;2022-09-21T08:36:32;101878.94;;;16.83;77.66
14269;BME280;7218;51.480;7.006;2022-09-21T08:38:58;101881.97;;;17.06;76.62
14269;BME280;7218;51.480;7.006;2022-09-21T08:41:48;101883.31;;;17.27;76.68
14269;BME280;7218;51.480;7.006;2022-09-21T08:44:18;101876.28;;;17.28;75.30
14269;BME280;7218;51.480;7.006;2022-09-21T08:46:54;101882.03;;;17.45;75.09
14269;BME280;7218;51.480;7.006;2022-09-21T08:49:26;101876.63;;;17.51;72.95
14269;BME280;7218;51.480;7.006;2022-09-21T08:51:56;101878.09;;;17.64;72.80
14269;BME280;7218;51.480;7.006;2022-09-21T08:54:27;101881.91;;;17.89;69.80
14269;BME280;7218;51.480;7.006;2022-09-21T08:56:57;101878.31;;;17.53;65.66
14269;BME280;7218;51.480;7.006;2022-09-21T08:59:23;101877.00;;;18.10;65.79
14269;BME280;7218;51.480;7.006;2022-09-21T09:01:55;101882.78;;;18.25;61.80
14269;BME280;7218;51.480;7.006;2022-09-21T09:04:30;101876.03;;;18.47;60.82
14269;BME280;7218;51.480;7.006;2022-09-21T09:07:16;101875.59;;;18.64;58.24
14269;BME280;7218;51.480;7.006;2022-09-21T09:09:59;101891.97;;;18.09;56.09
14269;BME280;7218;51.480;7.006;2022-09-21T09:12:40;101876.59;;;18.60;57.40
14269;BME280;7218;51.480;7.006;2022-09-21T09:15:23;101886.75;;;18.75;59.54
14269;BME280;7218;51.480;7.006;2022-09-21T09:18:02;101883.88;;;19.14;55.68
14269;BME280;7218;51.480;7.006;2022-09-21T09:20:36;101884.59;;;19.19;57.90
14269;BME280;7218;51.480;7.006;2022-09-21T09:23:08;101879.41;;;19.47;57.49
14269;BME280;7218;51.480;7.006;2022-09-21T09:25:38;101882.09;;;19.73;56.11
14269;BME280;7218;51.480;7.006;2022-09-21T09:28:18;101880.91;;;18.95;52.85
14269;BME280;7218;51.480;7.006;2022-09-21T09:30:46;101888.13;;;18.88;54.47
14269;BME280;7218;51.480;7.006;2022-09-21T09:33:22;101877.84;;;19.09;56.00
14269;BME280;7218;51.480;7.006;2022-09-21T09:35:53;101882.34;;;19.65;56.39
14269;BME280;7218;51.480;7.006;2022-09-21T09:38:25;101891.53;;;19.82;52.21
14269;BME280;7218;51.480;7.006;2022-09-21T09:41:03;101892.56;;;20.04;52.85
14269;BME280;7218;51.480;7.006;2022-09-21T09:43:43;101883.91;;;19.99;49.61
14269;BME280;7218;51.480;7.006;2022-09-21T09:46:17;101884.88;;;20.23;52.86
14269;BME280;7218;51.480;7.006;2022-09-21T09:49:11;101883.59;;;20.36;47.88
14269;BME280;7218;51.480;7.006;2022-09-21T09:51:39;101893.09;;;20.15;48.47
14269;BME280;7218;51.480;7.006;2022-09-21T09:54:12;101883.13;;;20.48;48.70
14269;BME280;7218;51.480;7.006;2022-09-21T09:56:39;101884.31;;;20.89;48.73
14269;BME280;7218;51.480;7.006;2022-09-21T09:59:12;101885.06;;;21.17;46.74
14269;BME280;7218;51.480;7.006;2022-09-21T10:01:42;101886.72;;;21.43;48.21
14269;BME280;7218;51.480;7.006;2022-09-21T10:04:12;101877.50;;;21.75;48.10
14269;BME280;7218;51.480;7.006;2022-09-21T10:06:39;101878.69;;;22.11;47.55
14269;BME280;7218;51.480;7.006;2022-09-21T10:09:18;101882.38;;;22.07;41.83
14269;BME280;7218;51.480;7.006;2022-09-21T10:11:46;101884.19;;;22.47;42.96
14269;BME280;7218;51.480;7.006;2022-09-21T10:14:17;101875.00;;;22.76;46.73
14269;BME280;7218;51.480;7.006;2022-09-21T10:16:47;101883.41;;;23.25;41.57
14269;BME280;7218;51.480;7.006;2022-09-21T10:19:19;101877.06;;;23.27;39.02
14269;BME280;7218;51.480;7.006;2022-09-21T10:21:46;101882.59;;;23.41;39.40
14269;BME280;7218;51.480;7.006;2022-09-21T10:24:19;101879.44;;;23.14;37.62
14269;BME280;7218;51.480;7.006;2022-09-21T10:26:48;101889.34;;;22.31;40.60
14269;BME280;7218;51.480;7.006;2022-09-21T10:29:18;101886.31;;;22.19;42.04
14269;BME280;7218;51.480;7.006;2022-09-21T10:31:53;101882.72;;;23.58;38.69
14269;BME280;7218;51.480;7.006;2022-09-21T10:34:23;101876.03;;;24.39;37.96
14269;BME280;7218;51.480;7.006;2022-09-21T10:36:53;101877.59;;;25.26;34.88
14269;BME280;7218;51.480;7.006;2022-09-21T10:39:25;101867.75;;;25.75;33.89
14269;BME280;7218;51.480;7.006;2022-09-21T10:41:57;101866.22;;;26.31;33.30
14269;BME280;7218;51.480;7.006;2022-09-21T10:44:28;101870.56;;;26.91;33.98
14269;BME280;7218;51.480;7.006;2022-09-21T10:47:01;101869.84;;;27.30;32.75
14269;BME280;7218;51.480;7.006;2022-09-21T10:49:43;101871.34;;;27.63;33.45
14269;BME280;7218;51.480;7.006;2022-09-21T10:52:11;101864.59;;;27.84;30.29
14269;BME280;7218;51.480;7.006;2022-09-21T10:54:38;101868.41;;;28.59;30.70
14269;BME280;7218;51.480;7.006;2022-09-21T10:57:08;101871.06;;;27.94;30.86
14269;BME280;7218;51.480;7.006;2022-09-21T10:59:36;101870.16;;;25.64;33.77
14269;BME280;7218;51.480;7.006;2022-09-21T11:02:24;101873.88;;;24.80;35.30
14269;BME280;7218;51.480;7.006;2022-09-21T11:04:53;101870.00;;;25.97;34.07
14269;BME280;7218;51.480;7.006;2022-09-21T11:07:26;101865.44;;;26.44;34.18
14269;BME280;7218;51.480;7.006;2022-09-21T11:10:00;101863.00;;;27.12;33.24
14269;BME280;7218;51.480;7.006;2022-09-21T11:12:34;101869.16;;;28.09;30.58
14269;BME280;7218;51.480;7.006;2022-09-21T11:15:14;101861.25;;;28.72;28.92
14269;BME280;7218;51.480;7.006;2022-09-21T11:17:48;101863.19;;;28.83;28.55
14269;BME280;7218;51.480;7.006;2022-09-21T11:20:23;101861.19;;;29.23;28.11
14269;BME280;7218;51.480;7.006;2022-09-21T11:22:59;101859.00;;;29.40;28.50
14269;BME280;7218;51.480;7.006;2022-09-21T11:25:33;101864.84;;;28.33;27.60
14269;BME280;7218;51.480;7.006;2022-09-21T11:28:08;101866.75;;;27.92;27.91
14269;BME280;7218;51.480;7.006;2022-09-21T11:30:47;101859.00;;;26.17;30.88
14269;BME280;7218;51.480;7.006;2022-09-21T11:33:29;101853.97;;;25.03;33.77
14269;BME280;7218;51.480;7.006;2022-09-21T11:36:06;101853.84;;;24.38;34.90
14269;BME280;7218;51.480;7.006;2022-09-21T11:38:45;101866.16;;;23.88;35.21
14269;BME280;7218;51.480;7.006;2022-09-21T11:41:26;101859.09;;;25.23;33.17
14269;BME280;7218;51.480;7.006;2022-09-21T11:44:09;101844.84;;;26.89;30.95
14269;BME280;7218;51.480;7.006;2022-09-21T11:46:44;101844.34;;;27.93;30.20
14269;BME280;7218;51.480;7.006;2022-09-21T11:49:25;101843.19;;;26.58;31.05
14269;BME280;7218;51.480;7.006;2022-09-21T11:52:14;101848.56;;;25.04;32.39
14269;BME280;7218;51.480;7.006;2022-09-21T11:54:59;101836.72;;;24.60;32.96
14269;BME280;7218;51.480;7.006;2022-09-21T11:57:36;101826.34;;;25.04;35.92
14269;BME280;7218;51.480;7.006;2022-09-21T12:00:14;101831.63;;;24.55;33.06
14269;BME280;7218;51.480;7.006;2022-09-21T12:03:11;101831.31;;;24.10;33.35
14269;BME280;7218;51.480;7.006;2022-09-21T12:05:49;101826.84;;;24.44;33.80
14269;BME280;7218;51.480;7.006;2022-09-21T12:08:36;101825.38;;;25.83;31.38
14269;BME280;7218;51.480;7.006;2022-09-21T12:11:14;101823.78;;;26.69;29.32
14269;BME280;7218;51.480;7.006;2022-09-21T12:13:49;101825.34;;;27.42;28.08
14269;BME280;7218;51.480;7.006;2022-09-21T12:16:25;101822.09;;;25.94;29.27
14269;BME280;7218;51.480;7.006;2022-09-21T12:18:59;101818.44;;;26.54;30.51
14269;BME280;7218;51.480;7.006;2022-09-21T12:21:32;101811.59;;;28.40;26.70
14269;BME280;7218;51.480;7.006;2022-09-21T12:24:02;101809.78;;;28.53;26.77
14269;BME280;7218;51.480;7.006;2022-09-21T12:26:36;101808.44;;;29.45;25.38
14269;BME280;7218;51.480;7.006;2022-09-21T12:29:11;101810.09;;;30.53;24.21
14269;BME280;7218;51.480;7.006;2022-09-21T12:31:43;101808.56;;;30.26;24.05
14269;BME280;7218;51.480;7.006;2022-09-21T12:34:17;101816.41;;;28.60;25.84
14269;BME280;7218;51.480;7.006;2022-09-21T12:36:51;101821.25;;;26.37;27.38
14269;BME280;7218;51.480;7.006;2022-09-21T12:39:24;101821.81;;;25.98;27.41
14269;BME280;7218;51.480;7.006;2022-09-21T12:41:57;101814.84;;;28.05;27.01
14269;BME280;7218;51.480;7.006;2022-09-21T12:44:31;101813.38;;;29.51;24.45
14269;BME280;7218;51.480;7.006;2022-09-21T12:47:18;101823.41;;;29.84;24.35
14269;BME280;7218;51.480;7.006;2022-09-21T12:49:50;101809.47;;;28.83;24.85
14269;BME280;7218;51.480;7.006;2022-09-21T12:52:21;101811.63;;;28.00;25.06
14269;BME280;7218;51.480;7.006;2022-09-21T12:54:54;101812.94;;;26.28;27.58
14269;BME280;7218;51.480;7.006;2022-09-21T12:57:29;101804.91;;;25.68;29.26
14269;BME280;7218;51.480;7.006;2022-09-21T13:00:02;101802.09;;;24.75;28.97
14269;BME280;7218;51.480;7.006;2022-09-21T13:02:33;101795.22;;;24.54;29.05
14269;BME280;7218;51.480;7.006;2022-09-21T13:05:10;101799.47;;;24.07;30.77
14269;BME280;7218;51.480;7.006;2022-09-21T13:08:08;101789.03;;;23.68;31.43
14269;BME280;7218;51.480;7.006;2022-09-21T13:10:45;101797.16;;;24.00;33.09
14269;BME280;7218;51.480;7.006;2022-09-21T13:13:21;101790.47;;;24.26;31.57
14269;BME280;7218;51.480;7.006;2022-09-21T13:15:49;101785.59;;;27.75;26.99
14269;BME280;7218;51.480;7.006;2022-09-21T13:18:20;101780.84;;;30.70;24.48